sensor_id;sensor_type;location;lat;lon;timestamp;temperature;humidity
8180;DHT22;4131;48.810;11.892;2023-04-30T00:00:40;11.40;99.90
8180;DHT22;4131;48.810;11.892;2023-04-30T00:03:08;9.30;99.90
8180;DHT22;4131;48.810;11.892;2023-04-30T00:05:37;9.20;99.90
8180;DHT22;4131;48.810;11.892;2023-04-30T00:08:06;9.20;99.90
8180;DHT22;4131;48.810;11.892;2023-04-30T00:10:34;9.20;99.90
8180;DHT22;4131;48.810;11.892;2023-04-30T00:13:02;9.20;99.90
8180;DHT22;4131;48.810;11.892;2023-04-30T00:15:31;9.40;99.90
8180;DHT22;4131;48.810;11.892;2023-04-30T00:17:59;9.20;99.90
8180;DHT22;4131;48.810;11.892;2023-04-30T00:20:27;9.20;99.90
8180;DHT22;4131;48.810;11.892;2023-04-30T00:22:55;9.10;99.90
8180;DHT22;4131;48.810;11.892;2023-04-30T00:25:25;9.20;99.90
8180;DHT22;4131;48.810;11.892;2023-04-30T00:27:53;9.20;99.90
8180;DHT22;4131;48.810;11.892;2023-04-30T00:30:21;8.90;99.90
8180;DHT22;4131;48.810;11.892;2023-04-30T00:32:49;9.10;99.90
8180;DHT22;4131;48.810;11.892;2023-04-30T00:35:17;9.10;99.90
8180;DHT22;4131;48.810;11.892;2023-04-30T00:37:47;9.00;99.90
8180;DHT22;4131;48.810;11.892;2023-04-30T00:40:15;9.10;99.90
8180;DHT22;4131;48.810;11.892;2023-04-30T00:42:44;9.10;99.90
8180;DHT22;4131;48.810;11.892;2023-04-30T00:45:14;9.00;99.90
8180;DHT22;4131;48.810;11.892;2023-04-30T00:47:43;11.50;99.90
8180;DHT22;4131;48.810;11.892;2023-04-30T00:50:11;11.30;99.90
8180;DHT22;4131;48.810;11.892;2023-04-30T00:52:41;11.70;99.90
8180;DHT22;4131;48.810;11.892;2023-04-30T00:55:10;9.10;99.90
8180;DHT22;4131;48.810;11.892;2023-04-30T00:57:39;9.10;99.90
8180;DHT22;4131;48.810;11.892;2023-04-30T01:00:09;9.10;99.90
8180;DHT22;4131;48.810;11.892;2023-04-30T01:02:39;9.10;99.90
8180;DHT22;4131;48.810;11.892;2023-04-30T01:05:08;9.10;99.90
8180;DHT22;4131;48.810;11.892;2023-04-30T01:07:37;9.10;99.90
8180;DHT22;4131;48.810;11.892;2023-04-30T01:10:11;9.10;99.90
8180;DHT22;4131;48.810;11.892;2023-04-30T01:12:43;9.10;99.90
8180;DHT22;4131;48.810;11.892;2023-04-30T01:15:20;9.10;99.90
8180;DHT22;4131;48.810;11.892;2023-04-30T01:17:54;9.10;99.90
8180;DHT22;4131;48.810;11.892;2023-04-30T01:20:25;10.60;99.90
8180;DHT22;4131;48.810;11.892;2023-04-30T01:23:05;9.80;99.90
8180;DHT22;4131;48.810;11.892;2023-04-30T01:25:52;9.20;99.90
8180;DHT22;4131;48.810;11.892;2023-04-30T01:28:22;9.10;99.90
8180;DHT22;4131;48.810;11.892;2023-04-30T01:30:51;9.20;99.90
8180;DHT22;4131;48.810;11.892;2023-04-30T01:33:19;10.40;99.90
8180;DHT22;4131;48.810;11.892;2023-04-30T01:36:09;9.50;99.90
8180;DHT22;4131;48.810;11.892;2023-04-30T01:38:54;9.10;99.90
8180;DHT22;4131;48.810;11.892;2023-04-30T01:41:32;9.20;99.90
8180;DHT22;4131;48.810;11.892;2023-04-30T01:44:22;9.10;99.90
8180;DHT22;4131;48.810;11.892;2023-04-30T01:46:57;9.10;99.90
8180;DHT22;4131;48.810;11.892;2023-04-30T01:49:34;9.30;99.90
8180;DHT22;4131;48.810;11.892;2023-04-30T01:52:17;10.30;99.90
8180;DHT22;4131;48.810;11.892;2023-04-30T01:54:51;9.70;99.90
8180;DHT22;4131;48.810;11.892;2023-04-30T01:57:27;9.10;99.90
8180;DHT22;4131;48.810;11.892;2023-04-30T01:59:57;9.00;99.90
8180;DHT22;4131;48.810;11.892;2023-04-30T02:02:25;9.10;99.90
8180;DHT22;4131;48.810;11.892;2023-04-30T02:04:53;9.00;99.90
8180;DHT22;4131;48.810;11.892;2023-04-30T02:07:28;9.00;99.90
8180;DHT22;4131;48.810;11.892;2023-04-30T02:10:00;9.00;99.90
8180;DHT22;4131;48.810;11.892;2023-04-30T02:12:29;10.60;99.90
8180;DHT22;4131;48.810;11.892;2023-04-30T02:14:58;9.80;99.90
8180;DHT22;4131;48.810;11.892;2023-04-30T02:17:26;9.40;99.90
8180;DHT22;4131;48.810;11.892;2023-04-30T02:19:54;9.00;99.90
8180;DHT22;4131;48.810;11.892;2023-04-30T02:22:22;9.00;99.90
8180;DHT22;4131;48.810;11.892;2023-04-30T02:24:51;9.30;99.90
8180;DHT22;4131;48.810;11.892;2023-04-30T02:27:23;9.00;99.90
8180;DHT22;4131;48.810;11.892;2023-04-30T02:29:51;9.00;99.90
8180;DHT22;4131;48.810;11.892;2023-04-30T02:32:21;9.00;99.90
8180;DHT22;4131;48.810;11.892;2023-04-30T02:34:50;9.00;99.90
8180;DHT22;4131;48.810;11.892;2023-04-30T02:37:18;9.20;99.90
8180;DHT22;4131;48.810;11.892;2023-04-30T02:39:46;9.00;99.90
8180;DHT22;4131;48.810;11.892;2023-04-30T02:42:14;8.90;99.90
8180;DHT22;4131;48.810;11.892;2023-04-30T02:44:42;9.20;99.90
8180;DHT22;4131;48.810;11.892;2023-04-30T02:47:10;8.90;99.90
8180;DHT22;4131;48.810;11.892;2023-04-30T02:49:41;8.80;99.90
8180;DHT22;4131;48.810;11.892;2023-04-30T02:52:09;9.30;99.90
8180;DHT22;4131;48.810;11.892;2023-04-30T02:54:37;8.90;99.90
8180;DHT22;4131;48.810;11.892;2023-04-30T02:57:05;8.80;99.90
8180;DHT22;4131;48.810;11.892;2023-04-30T02:59:33;9.60;99.90
8180;DHT22;4131;48.810;11.892;2023-04-30T03:02:01;10.00;99.90
8180;DHT22;4131;48.810;11.892;2023-04-30T03:04:29;8.90;99.90
8180;DHT22;4131;48.810;11.892;2023-04-30T03:06:59;8.80;99.90
8180;DHT22;4131;48.810;11.892;2023-04-30T03:09:29;9.40;99.90
8180;DHT22;4131;48.810;11.892;2023-04-30T03:11:57;9.10;99.90
8180;DHT22;4131;48.810;11.892;2023-04-30T03:14:25;8.90;99.90
8180;DHT22;4131;48.810;11.892;2023-04-30T03:16:53;8.80;99.90
8180;DHT22;4131;48.810;11.892;2023-04-30T03:19:21;8.90;99.90
8180;DHT22;4131;48.810;11.892;2023-04-30T03:21:51;8.90;99.90
8180;DHT22;4131;48.810;11.892;2023-04-30T03:24:20;8.80;99.90
8180;DHT22;4131;48.810;11.892;2023-04-30T03:26:48;8.80;99.90
8180;DHT22;4131;48.810;11.892;2023-04-30T03:29:17;8.90;99.90
8180;DHT22;4131;48.810;11.892;2023-04-30T03:31:45;9.50;99.90
8180;DHT22;4131;48.810;11.892;2023-04-30T03:34:13;9.20;99.90
8180;DHT22;4131;48.810;11.892;2023-04-30T03:36:41;8.80;99.90
8180;DHT22;4131;48.810;11.892;2023-04-30T03:39:09;8.90;99.90
8180;DHT22;4131;48.810;11.892;2023-04-30T03:41:39;8.80;99.90
8180;DHT22;4131;48.810;11.892;2023-04-30T03:44:07;9.10;99.90
8180;DHT22;4131;48.810;11.892;2023-04-30T03:46:41;9.30;99.90
8180;DHT22;4131;48.810;11.892;2023-04-30T03:49:10;8.80;99.90
8180;DHT22;4131;48.810;11.892;2023-04-30T03:51:38;8.80;99.90
8180;DHT22;4131;48.810;11.892;2023-04-30T03:54:07;8.90;99.90
8180;DHT22;4131;48.810;11.892;2023-04-30T03:56:36;8.80;99.90
8180;DHT22;4131;48.810;11.892;2023-04-30T03:59:06;8.80;99.90
8180;DHT22;4131;48.810;11.892;2023-04-30T04:01:35;9.10;99.90
8180;DHT22;4131;48.810;11.892;2023-04-30T04:04:03;8.80;99.90
8180;DHT22;4131;48.810;11.892;2023-04-30T04:06:32;8.80;99.90
8180;DHT22;4131;48.810;11.892;2023-04-30T04:09:00;8.80;99.90
8180;DHT22;4131;48.810;11.892;2023-04-30T04:11:29;8.80;99.90
8180;DHT22;4131;48.810;11.892;2023-04-30T04:13:57;9.60;99.90
8180;DHT22;4131;48.810;11.892;2023-04-30T04:16:27;8.80;99.90
8180;DHT22;4131;48.810;11.892;2023-04-30T04:18:55;10.80;99.90
8180;DHT22;4131;48.810;11.892;2023-04-30T04:21:23;9.50;99.90
8180;DHT22;4131;48.810;11.892;2023-04-30T04:23:52;8.80;99.90
8180;DHT22;4131;48.810;11.892;2023-04-30T04:26:20;8.80;99.90
8180;DHT22;4131;48.810;11.892;2023-04-30T04:28:51;9.60;99.90
8180;DHT22;4131;48.810;11.892;2023-04-30T04:31:19;10.10;99.90
8180;DHT22;4131;48.810;11.892;2023-04-30T04:33:50;10.10;99.90
8180;DHT22;4131;48.810;11.892;2023-04-30T04:36:24;10.10;99.90
8180;DHT22;4131;48.810;11.892;2023-04-30T04:38:53;10.30;99.90
8180;DHT22;4131;48.810;11.892;2023-04-30T04:41:23;9.50;99.90
8180;DHT22;4131;48.810;11.892;2023-04-30T04:43:52;8.90;99.90
8180;DHT22;4131;48.810;11.892;2023-04-30T04:46:20;8.90;99.90
8180;DHT22;4131;48.810;11.892;2023-04-30T04:48:50;9.00;99.90
8180;DHT22;4131;48.810;11.892;2023-04-30T04:51:18;10.30;99.90
8180;DHT22;4131;48.810;11.892;2023-04-30T04:53:47;9.10;99.90
8180;DHT22;4131;48.810;11.892;2023-04-30T04:56:15;9.40;99.90
8180;DHT22;4131;48.810;11.892;2023-04-30T04:58:43;9.20;99.90
8180;DHT22;4131;48.810;11.892;2023-04-30T05:01:12;9.30;99.90
8180;DHT22;4131;48.810;11.892;2023-04-30T05:03:40;9.60;99.90
8180;DHT22;4131;48.810;11.892;2023-04-30T05:06:10;10.60;99.90
8180;DHT22;4131;48.810;11.892;2023-04-30T05:08:38;9.50;99.90
8180;DHT22;4131;48.810;11.892;2023-04-30T05:11:06;10.30;99.90
8180;DHT22;4131;48.810;11.892;2023-04-30T05:13:34;10.00;99.90
8180;DHT22;4131;48.810;11.892;2023-04-30T05:16:03;9.70;99.90
8180;DHT22;4131;48.810;11.892;2023-04-30T05:18:32;9.80;99.90
8180;DHT22;4131;48.810;11.892;2023-04-30T05:21:00;10.00;99.90
8180;DHT22;4131;48.810;11.892;2023-04-30T05:23:29;10.10;99.90
8180;DHT22;4131;48.810;11.892;2023-04-30T05:25:58;10.60;99.90
8180;DHT22;4131;48.810;11.892;2023-04-30T05:28:26;10.70;99.90
8180;DHT22;4131;48.810;11.892;2023-04-30T05:30:54;10.90;99.90
8180;DHT22;4131;48.810;11.892;2023-04-30T05:33:22;10.30;99.90
8180;DHT22;4131;48.810;11.892;2023-04-30T05:35:50;10.30;99.90
8180;DHT22;4131;48.810;11.892;2023-04-30T05:38:18;10.40;99.90
8180;DHT22;4131;48.810;11.892;2023-04-30T05:40:48;10.50;99.90
8180;DHT22;4131;48.810;11.892;2023-04-30T05:43:16;10.50;99.90
8180;DHT22;4131;48.810;11.892;2023-04-30T05:45:44;10.70;99.90
8180;DHT22;4131;48.810;11.892;2023-04-30T05:48:12;10.60;99.90
8180;DHT22;4131;48.810;11.892;2023-04-30T05:50:41;10.80;99.90
8180;DHT22;4131;48.810;11.892;2023-04-30T05:53:09;10.90;99.90
8180;DHT22;4131;48.810;11.892;2023-04-30T05:55:37;11.00;99.90
8180;DHT22;4131;48.810;11.892;2023-04-30T05:58:07;12.10;99.90
8180;DHT22;4131;48.810;11.892;2023-04-30T06:00:37;10.20;99.90
8180;DHT22;4131;48.810;11.892;2023-04-30T06:03:06;11.30;99.90
8180;DHT22;4131;48.810;11.892;2023-04-30T06:05:36;11.60;99.90
8180;DHT22;4131;48.810;11.892;2023-04-30T06:08:08;10.40;99.90
8180;DHT22;4131;48.810;11.892;2023-04-30T06:10:38;13.60;99.90
8180;DHT22;4131;48.810;11.892;2023-04-30T06:13:09;11.90;99.90
8180;DHT22;4131;48.810;11.892;2023-04-30T06:15:37;12.20;99.90
8180;DHT22;4131;48.810;11.892;2023-04-30T06:18:06;12.70;99.90
8180;DHT22;4131;48.810;11.892;2023-04-30T06:20:35;13.30;99.90
8180;DHT22;4131;48.810;11.892;2023-04-30T06:23:03;13.80;99.90
8180;DHT22;4131;48.810;11.892;2023-04-30T06:25:32;14.60;99.90
8180;DHT22;4131;48.810;11.892;2023-04-30T06:28:00;14.70;99.90
8180;DHT22;4131;48.810;11.892;2023-04-30T06:30:30;15.30;99.90
8180;DHT22;4131;48.810;11.892;2023-04-30T06:32:59;15.60;99.90
8180;DHT22;4131;48.810;11.892;2023-04-30T06:35:28;15.80;99.90
8180;DHT22;4131;48.810;11.892;2023-04-30T06:37:57;15.60;99.90
8180;DHT22;4131;48.810;11.892;2023-04-30T06:40:26;16.10;99.90
8180;DHT22;4131;48.810;11.892;2023-04-30T06:42:54;16.60;99.90
8180;DHT22;4131;48.810;11.892;2023-04-30T06:45:23;15.10;99.90
8180;DHT22;4131;48.810;11.892;2023-04-30T06:47:52;16.60;99.90
8180;DHT22;4131;48.810;11.892;2023-04-30T06:50:20;17.10;99.90
8180;DHT22;4131;48.810;11.892;2023-04-30T06:52:48;17.00;99.90
8180;DHT22;4131;48.810;11.892;2023-04-30T06:55:17;17.10;99.90
8180;DHT22;4131;48.810;11.892;2023-04-30T06:57:45;17.30;99.90
8180;DHT22;4131;48.810;11.892;2023-04-30T07:00:13;17.40;99.90
8180;DHT22;4131;48.810;11.892;2023-04-30T07:02:42;17.60;99.90
8180;DHT22;4131;48.810;11.892;2023-04-30T07:05:12;17.30;99.90
8180;DHT22;4131;48.810;11.892;2023-04-30T07:07:40;17.50;99.90
8180;DHT22;4131;48.810;11.892;2023-04-30T07:10:08;17.60;99.90
8180;DHT22;4131;48.810;11.892;2023-04-30T07:12:37;17.40;99.90
8180;DHT22;4131;48.810;11.892;2023-04-30T07:15:06;17.60;99.90
8180;DHT22;4131;48.810;11.892;2023-04-30T07:17:34;17.40;99.90
8180;DHT22;4131;48.810;11.892;2023-04-30T07:20:03;18.30;99.90
8180;DHT22;4131;48.810;11.892;2023-04-30T07:22:33;18.30;99.90
8180;DHT22;4131;48.810;11.892;2023-04-30T07:25:01;18.20;99.90
8180;DHT22;4131;48.810;11.892;2023-04-30T07:27:29;18.10;99.90
8180;DHT22;4131;48.810;11.892;2023-04-30T07:29:57;18.40;99.90
8180;DHT22;4131;48.810;11.892;2023-04-30T07:32:25;18.40;99.90
8180;DHT22;4131;48.810;11.892;2023-04-30T07:34:54;18.60;99.90
8180;DHT22;4131;48.810;11.892;2023-04-30T07:37:22;18.90;99.90
8180;DHT22;4131;48.810;11.892;2023-04-30T07:39:51;18.10;99.90
8180;DHT22;4131;48.810;11.892;2023-04-30T07:42:19;18.30;99.90
8180;DHT22;4131;48.810;11.892;2023-04-30T07:44:48;18.90;99.90
8180;DHT22;4131;48.810;11.892;2023-04-30T07:47:16;19.30;99.90
8180;DHT22;4131;48.810;11.892;2023-04-30T07:49:45;19.00;99.90
8180;DHT22;4131;48.810;11.892;2023-04-30T07:52:13;19.50;99.90
8180;DHT22;4131;48.810;11.892;2023-04-30T07:54:42;19.70;99.90
8180;DHT22;4131;48.810;11.892;2023-04-30T07:57:11;19.90;99.90
8180;DHT22;4131;48.810;11.892;2023-04-30T07:59:39;19.60;99.90
8180;DHT22;4131;48.810;11.892;2023-04-30T08:02:08;19.40;99.90
8180;DHT22;4131;48.810;11.892;2023-04-30T08:04:36;19.10;99.90
8180;DHT22;4131;48.810;11.892;2023-04-30T08:07:04;18.40;99.90
8180;DHT22;4131;48.810;11.892;2023-04-30T08:09:33;18.50;99.90
8180;DHT22;4131;48.810;11.892;2023-04-30T08:12:01;19.10;99.90
8180;DHT22;4131;48.810;11.892;2023-04-30T08:14:32;19.90;99.90
8180;DHT22;4131;48.810;11.892;2023-04-30T08:17:00;19.50;99.90
8180;DHT22;4131;48.810;11.892;2023-04-30T08:19:29;18.70;99.90
8180;DHT22;4131;48.810;11.892;2023-04-30T08:21:57;18.60;99.90
8180;DHT22;4131;48.810;11.892;2023-04-30T08:24:25;17.90;99.90
8180;DHT22;4131;48.810;11.892;2023-04-30T08:26:53;17.70;99.90
8180;DHT22;4131;48.810;11.892;2023-04-30T08:29:21;17.60;99.90
8180;DHT22;4131;48.810;11.892;2023-04-30T08:31:51;17.70;99.90
8180;DHT22;4131;48.810;11.892;2023-04-30T08:34:19;17.30;99.90
8180;DHT22;4131;48.810;11.892;2023-04-30T08:36:47;16.70;99.90
8180;DHT22;4131;48.810;11.892;2023-04-30T08:39:15;16.50;99.90
8180;DHT22;4131;48.810;11.892;2023-04-30T08:41:45;16.40;99.90
8180;DHT22;4131;48.810;11.892;2023-04-30T08:44:14;16.50;99.90
8180;DHT22;4131;48.810;11.892;2023-04-30T08:46:42;16.60;99.90
8180;DHT22;4131;48.810;11.892;2023-04-30T08:49:13;16.30;99.90
8180;DHT22;4131;48.810;11.892;2023-04-30T08:51:41;16.40;99.90
8180;DHT22;4131;48.810;11.892;2023-04-30T08:54:11;16.10;99.90
8180;DHT22;4131;48.810;11.892;2023-04-30T08:56:39;15.80;99.90
8180;DHT22;4131;48.810;11.892;2023-04-30T08:59:08;15.60;99.90
8180;DHT22;4131;48.810;11.892;2023-04-30T09:01:36;15.80;99.90
8180;DHT22;4131;48.810;11.892;2023-04-30T09:04:05;15.90;99.90
8180;DHT22;4131;48.810;11.892;2023-04-30T09:06:34;16.30;99.90
8180;DHT22;4131;48.810;11.892;2023-04-30T09:09:08;16.20;99.90
8180;DHT22;4131;48.810;11.892;2023-04-30T09:11:37;16.60;99.90
8180;DHT22;4131;48.810;11.892;2023-04-30T09:14:05;17.00;99.90
8180;DHT22;4131;48.810;11.892;2023-04-30T09:16:45;16.90;99.90
8180;DHT22;4131;48.810;11.892;2023-04-30T09:19:23;17.10;99.90
8180;DHT22;4131;48.810;11.892;2023-04-30T09:21:53;16.90;99.90
8180;DHT22;4131;48.810;11.892;2023-04-30T09:24:22;17.00;99.90
8180;DHT22;4131;48.810;11.892;2023-04-30T09:26:52;17.30;99.90
8180;DHT22;4131;48.810;11.892;2023-04-30T09:29:20;17.70;99.90
8180;DHT22;4131;48.810;11.892;2023-04-30T09:31:48;17.20;99.90
8180;DHT22;4131;48.810;11.892;2023-04-30T09:34:16;16.80;99.90
8180;DHT22;4131;48.810;11.892;2023-04-30T09:36:52;16.80;99.90
8180;DHT22;4131;48.810;11.892;2023-04-30T09:39:21;17.00;99.90
8180;DHT22;4131;48.810;11.892;2023-04-30T09:41:50;17.10;99.90
8180;DHT22;4131;48.810;11.892;2023-04-30T09:44:28;17.10;99.90
8180;DHT22;4131;48.810;11.892;2023-04-30T09:46:56;17.20;99.90
8180;DHT22;4131;48.810;11.892;2023-04-30T09:49:25;16.90;99.90
8180;DHT22;4131;48.810;11.892;2023-04-30T09:51:56;17.10;99.90
8180;DHT22;4131;48.810;11.892;2023-04-30T09:54:26;16.90;99.90
8180;DHT22;4131;48.810;11.892;2023-04-30T09:56:55;16.80;99.90
8180;DHT22;4131;48.810;11.892;2023-04-30T09:59:28;16.80;99.90
8180;DHT22;4131;48.810;11.892;2023-04-30T10:01:58;17.00;99.90
8180;DHT22;4131;48.810;11.892;2023-04-30T10:04:29;17.00;99.90
8180;DHT22;4131;48.810;11.892;2023-04-30T10:07:01;17.00;99.90
8180;DHT22;4131;48.810;11.892;2023-04-30T10:09:38;17.50;99.90
8180;DHT22;4131;48.810;11.892;2023-04-30T10:12:15;17.60;99.90
8180;DHT22;4131;48.810;11.892;2023-04-30T10:14:56;17.30;99.90
8180;DHT22;4131;48.810;11.892;2023-04-30T10:17:27;17.30;99.90
8180;DHT22;4131;48.810;11.892;2023-04-30T10:20:03;17.20;99.90
8180;DHT22;4131;48.810;11.892;2023-04-30T10:22:35;17.20;99.90
8180;DHT22;4131;48.810;11.892;2023-04-30T10:25:04;17.00;99.90
8180;DHT22;4131;48.810;11.892;2023-04-30T10:27:37;17.10;99.90
8180;DHT22;4131;48.810;11.892;2023-04-30T10:30:07;17.20;99.90
8180;DHT22;4131;48.810;11.892;2023-04-30T10:32:40;17.60;99.90
8180;DHT22;4131;48.810;11.892;2023-04-30T10:35:16;17.60;99.90
8180;DHT22;4131;48.810;11.892;2023-04-30T10:41:08;18.50;99.90
8180;DHT22;4131;48.810;11.892;2023-04-30T10:43:36;18.40;99.90
8180;DHT22;4131;48.810;11.892;2023-04-30T10:46:04;18.70;99.90
8180;DHT22;4131;48.810;11.892;2023-04-30T10:48:33;19.10;99.90
8180;DHT22;4131;48.810;11.892;2023-04-30T10:51:01;20.20;99.90
8180;DHT22;4131;48.810;11.892;2023-04-30T10:53:30;19.70;99.90
8180;DHT22;4131;48.810;11.892;2023-04-30T10:56:00;20.00;99.90
8180;DHT22;4131;48.810;11.892;2023-04-30T10:58:35;22.40;99.90
8180;DHT22;4131;48.810;11.892;2023-04-30T11:01:08;19.70;99.90
8180;DHT22;4131;48.810;11.892;2023-04-30T11:04:03;19.00;99.90
8180;DHT22;4131;48.810;11.892;2023-04-30T11:06:48;17.50;99.90
8180;DHT22;4131;48.810;11.892;2023-04-30T11:09:16;19.00;99.90
8180;DHT22;4131;48.810;11.892;2023-04-30T11:12:01;17.40;99.90
8180;DHT22;4131;48.810;11.892;2023-04-30T11:14:32;18.50;99.90
8180;DHT22;4131;48.810;11.892;2023-04-30T11:17:01;18.60;99.90
8180;DHT22;4131;48.810;11.892;2023-04-30T11:19:29;18.60;99.90
8180;DHT22;4131;48.810;11.892;2023-04-30T11:22:16;18.20;99.90
8180;DHT22;4131;48.810;11.892;2023-04-30T11:24:52;18.70;99.90
8180;DHT22;4131;48.810;11.892;2023-04-30T11:27:22;19.60;99.90
8180;DHT22;4131;48.810;11.892;2023-04-30T11:29:52;20.60;99.90
8180;DHT22;4131;48.810;11.892;2023-04-30T11:32:22;22.20;99.90
8180;DHT22;4131;48.810;11.892;2023-04-30T11:34:51;22.60;99.90
8180;DHT22;4131;48.810;11.892;2023-04-30T11:37:20;23.10;99.90
8180;DHT22;4131;48.810;11.892;2023-04-30T11:39:49;22.40;99.90
8180;DHT22;4131;48.810;11.892;2023-04-30T11:42:18;23.70;99.90
8180;DHT22;4131;48.810;11.892;2023-04-30T11:44:46;24.40;99.90
8180;DHT22;4131;48.810;11.892;2023-04-30T11:47:16;22.50;99.90
8180;DHT22;4131;48.810;11.892;2023-04-30T11:49:44;21.90;99.90
8180;DHT22;4131;48.810;11.892;2023-04-30T11:52:12;21.50;99.90
8180;DHT22;4131;48.810;11.892;2023-04-30T11:54:40;20.80;99.90
8180;DHT22;4131;48.810;11.892;2023-04-30T11:57:09;20.50;99.90
8180;DHT22;4131;48.810;11.892;2023-04-30T11:59:40;20.20;99.90
8180;DHT22;4131;48.810;11.892;2023-04-30T12:02:13;20.70;99.90
8180;DHT22;4131;48.810;11.892;2023-04-30T12:04:43;19.40;99.90
8180;DHT22;4131;48.810;11.892;2023-04-30T12:07:14;20.70;99.90
8180;DHT22;4131;48.810;11.892;2023-04-30T12:09:52;19.80;99.90
8180;DHT22;4131;48.810;11.892;2023-04-30T12:12:28;19.40;99.90
8180;DHT22;4131;48.810;11.892;2023-04-30T12:14:56;19.40;99.90
8180;DHT22;4131;48.810;11.892;2023-04-30T12:17:31;20.20;99.90
8180;DHT22;4131;48.810;11.892;2023-04-30T12:20:01;21.40;99.90
8180;DHT22;4131;48.810;11.892;2023-04-30T12:22:31;21.50;99.90
8180;DHT22;4131;48.810;11.892;2023-04-30T12:24:59;22.00;99.90
8180;DHT22;4131;48.810;11.892;2023-04-30T12:27:28;21.30;99.90
8180;DHT22;4131;48.810;11.892;2023-04-30T12:30:01;20.80;99.90
8180;DHT22;4131;48.810;11.892;2023-04-30T12:35:14;20.00;99.90
8180;DHT22;4131;48.810;11.892;2023-04-30T12:37:43;20.30;99.90
8180;DHT22;4131;48.810;11.892;2023-04-30T12:40:12;20.40;99.90
8180;DHT22;4131;48.810;11.892;2023-04-30T12:42:41;19.70;99.90
8180;DHT22;4131;48.810;11.892;2023-04-30T12:45:10;20.30;99.90
8180;DHT22;4131;48.810;11.892;2023-04-30T12:47:39;20.60;99.90
8180;DHT22;4131;48.810;11.892;2023-04-30T12:50:09;20.80;99.90
8180;DHT22;4131;48.810;11.892;2023-04-30T12:52:39;20.30;99.90
8180;DHT22;4131;48.810;11.892;2023-04-30T12:55:16;20.20;99.90
8180;DHT22;4131;48.810;11.892;2023-04-30T12:58:05;20.00;99.90
8180;DHT22;4131;48.810;11.892;2023-04-30T13:00:47;20.60;99.90
8180;DHT22;4131;48.810;11.892;2023-04-30T13:03:16;21.10;99.90
8180;DHT22;4131;48.810;11.892;2023-04-30T13:05:46;20.00;99.90
8180;DHT22;4131;48.810;11.892;2023-04-30T13:08:17;20.40;99.90
8180;DHT22;4131;48.810;11.892;2023-04-30T13:10:47;20.40;99.90
8180;DHT22;4131;48.810;11.892;2023-04-30T13:13:16;19.90;99.90
8180;DHT22;4131;48.810;11.892;2023-04-30T13:15:45;21.20;99.90
8180;DHT22;4131;48.810;11.892;2023-04-30T13:18:14;18.90;99.90
8180;DHT22;4131;48.810;11.892;2023-04-30T13:20:42;19.00;99.90
8180;DHT22;4131;48.810;11.892;2023-04-30T13:23:10;19.20;99.90
8180;DHT22;4131;48.810;11.892;2023-04-30T13:25:40;21.30;99.90
8180;DHT22;4131;48.810;11.892;2023-04-30T13:28:08;19.10;99.90
8180;DHT22;4131;48.810;11.892;2023-04-30T13:30:36;20.80;99.90
8180;DHT22;4131;48.810;11.892;2023-04-30T13:33:04;21.60;99.90
8180;DHT22;4131;48.810;11.892;2023-04-30T13:35:32;20.00;99.90
8180;DHT22;4131;48.810;11.892;2023-04-30T13:38:00;20.40;99.90
8180;DHT22;4131;48.810;11.892;2023-04-30T13:40:29;20.20;99.90
8180;DHT22;4131;48.810;11.892;2023-04-30T13:42:58;19.50;99.90
8180;DHT22;4131;48.810;11.892;2023-04-30T13:45:26;19.70;99.90
8180;DHT22;4131;48.810;11.892;2023-04-30T13:47:54;19.60;99.90
8180;DHT22;4131;48.810;11.892;2023-04-30T13:50:22;20.90;99.90
8180;DHT22;4131;48.810;11.892;2023-04-30T13:52:50;19.60;99.90
8180;DHT22;4131;48.810;11.892;2023-04-30T13:55:21;19.00;99.90
8180;DHT22;4131;48.810;11.892;2023-04-30T13:57:50;19.80;99.90
8180;DHT22;4131;48.810;11.892;2023-04-30T14:00:19;20.20;99.90
8180;DHT22;4131;48.810;11.892;2023-04-30T14:02:47;20.20;99.90
8180;DHT22;4131;48.810;11.892;2023-04-30T14:05:16;20.30;99.90
8180;DHT22;4131;48.810;11.892;2023-04-30T14:07:44;20.20;99.90
8180;DHT22;4131;48.810;11.892;2023-04-30T14:10:12;20.40;99.90
8180;DHT22;4131;48.810;11.892;2023-04-30T14:12:40;20.70;99.90
8180;DHT22;4131;48.810;11.892;2023-04-30T14:15:09;20.40;99.90
8180;DHT22;4131;48.810;11.892;2023-04-30T14:17:38;20.00;99.90
8180;DHT22;4131;48.810;11.892;2023-04-30T14:20:07;19.90;99.90
8180;DHT22;4131;48.810;11.892;2023-04-30T14:22:36;19.70;99.90
8180;DHT22;4131;48.810;11.892;2023-04-30T14:25:05;19.80;99.90
8180;DHT22;4131;48.810;11.892;2023-04-30T14:27:35;20.00;99.90
8180;DHT22;4131;48.810;11.892;2023-04-30T14:30:03;20.10;99.90
8180;DHT22;4131;48.810;11.892;2023-04-30T14:32:31;19.60;99.90
8180;DHT22;4131;48.810;11.892;2023-04-30T14:35:07;19.50;99.90
8180;DHT22;4131;48.810;11.892;2023-04-30T14:37:35;19.30;99.90
8180;DHT22;4131;48.810;11.892;2023-04-30T14:40:04;19.00;99.90
8180;DHT22;4131;48.810;11.892;2023-04-30T14:42:33;19.00;99.90
8180;DHT22;4131;48.810;11.892;2023-04-30T14:45:01;18.50;99.90
8180;DHT22;4131;48.810;11.892;2023-04-30T14:47:29;18.30;99.90
8180;DHT22;4131;48.810;11.892;2023-04-30T14:49:57;18.10;99.90
8180;DHT22;4131;48.810;11.892;2023-04-30T14:52:29;18.00;99.90
8180;DHT22;4131;48.810;11.892;2023-04-30T14:54:57;18.30;99.90
8180;DHT22;4131;48.810;11.892;2023-04-30T14:57:25;18.50;99.90
8180;DHT22;4131;48.810;11.892;2023-04-30T14:59:54;18.50;99.90
8180;DHT22;4131;48.810;11.892;2023-04-30T15:02:23;18.20;99.90
8180;DHT22;4131;48.810;11.892;2023-04-30T15:04:51;18.40;99.90
8180;DHT22;4131;48.810;11.892;2023-04-30T15:07:19;18.30;99.90
8180;DHT22;4131;48.810;11.892;2023-04-30T15:09:49;18.00;99.90
8180;DHT22;4131;48.810;11.892;2023-04-30T15:12:18;17.60;99.90
8180;DHT22;4131;48.810;11.892;2023-04-30T15:14:48;17.90;99.90
8180;DHT22;4131;48.810;11.892;2023-04-30T15:17:16;18.10;99.90
8180;DHT22;4131;48.810;11.892;2023-04-30T15:19:44;18.40;99.90
8180;DHT22;4131;48.810;11.892;2023-04-30T15:22:12;18.50;99.90
8180;DHT22;4131;48.810;11.892;2023-04-30T15:24:40;18.70;99.90
8180;DHT22;4131;48.810;11.892;2023-04-30T15:27:09;18.60;99.90
8180;DHT22;4131;48.810;11.892;2023-04-30T15:29:38;18.60;99.90
8180;DHT22;4131;48.810;11.892;2023-04-30T15:32:07;18.40;99.90
8180;DHT22;4131;48.810;11.892;2023-04-30T15:34:35;18.20;99.90
8180;DHT22;4131;48.810;11.892;2023-04-30T15:37:03;17.70;99.90
8180;DHT22;4131;48.810;11.892;2023-04-30T15:39:31;17.70;99.90
8180;DHT22;4131;48.810;11.892;2023-04-30T15:44:30;17.60;99.90
8180;DHT22;4131;48.810;11.892;2023-04-30T15:46:59;17.40;99.90
8180;DHT22;4131;48.810;11.892;2023-04-30T15:49:27;17.40;99.90
8180;DHT22;4131;48.810;11.892;2023-04-30T15:51:55;17.30;99.90
8180;DHT22;4131;48.810;11.892;2023-04-30T15:54:23;17.40;99.90
8180;DHT22;4131;48.810;11.892;2023-04-30T15:56:51;17.10;99.90
8180;DHT22;4131;48.810;11.892;2023-04-30T15:59:19;17.20;99.90
8180;DHT22;4131;48.810;11.892;2023-04-30T16:01:48;17.20;99.90
8180;DHT22;4131;48.810;11.892;2023-04-30T16:04:17;17.30;99.90
8180;DHT22;4131;48.810;11.892;2023-04-30T16:06:45;17.30;99.90
8180;DHT22;4131;48.810;11.892;2023-04-30T16:09:13;17.30;99.90
8180;DHT22;4131;48.810;11.892;2023-04-30T16:11:45;17.10;99.90
8180;DHT22;4131;48.810;11.892;2023-04-30T16:14:14;17.00;99.90